createdAt,value
2022-08-07T00:04:48.661Z,23.05
2022-08-07T00:10:04.928Z,23.02
2022-08-07T00:15:15.510Z,22.99
2022-08-07T00:20:30.002Z,22.95
2022-08-07T00:25:41.448Z,22.92
2022-08-07T00:30:44.476Z,22.89
2022-08-07T00:35:49.693Z,22.86
2022-08-07T00:40:53.988Z,22.82
2022-08-07T00:45:56.724Z,22.81
2022-08-07T00:50:59.666Z,22.76
2022-08-07T00:56:04.656Z,22.72
2022-08-07T01:01:17.504Z,22.66
2022-08-07T01:06:21.929Z,22.70
2022-08-07T01:12:09.280Z,22.65
2022-08-07T01:16:50.460Z,22.63
2022-08-07T01:21:57.125Z,22.59
2022-08-07T01:27:03.617Z,22.56
2022-08-07T01:32:12.467Z,22.54
2022-08-07T01:37:20.825Z,22.50
2022-08-07T01:42:38.538Z,22.48
2022-08-07T01:48:21.518Z,22.45
2022-08-07T01:53:20.807Z,22.42
2022-08-07T01:58:33.285Z,22.38
2022-08-07T02:03:48.940Z,22.34
2022-08-07T02:08:57.083Z,22.32
2022-08-07T02:14:03.180Z,22.30
2022-08-07T02:20:04.238Z,22.26
2022-08-07T02:24:35.976Z,22.22
2022-08-07T02:29:48.581Z,22.20
2022-08-07T02:34:58.903Z,22.18
2022-08-07T02:40:29.699Z,22.15
2022-08-07T02:45:58.270Z,22.11
2022-08-07T02:50:58.632Z,22.09
2022-08-07T02:56:11.266Z,22.07
2022-08-07T03:01:35.961Z,22.02
2022-08-07T03:06:45.961Z,22.00
2022-08-07T03:11:58.011Z,21.91
2022-08-07T03:17:08.675Z,21.95
2022-08-07T03:22:18.899Z,21.89
2022-08-07T03:27:30.815Z,21.88
2022-08-07T03:32:57.039Z,21.85
2022-08-07T03:38:05.251Z,21.83
2022-08-07T03:43:14.564Z,21.79
2022-08-07T03:48:22.424Z,21.77
2022-08-07T03:53:50.116Z,21.73
2022-08-07T03:59:08.794Z,21.72
2022-08-07T04:04:17.953Z,21.67
2022-08-07T04:09:24.504Z,21.65
2022-08-07T04:14:38.772Z,21.63
2022-08-07T04:19:52.270Z,21.59
2022-08-07T04:25:01.663Z,21.55
2022-08-07T04:30:20.928Z,21.55
2022-08-07T04:35:37.101Z,21.52
2022-08-07T04:40:52.418Z,21.51
2022-08-07T04:46:12.338Z,21.49
2022-08-07T04:51:29.494Z,21.47
2022-08-07T04:58:11.764Z,21.47
2022-08-07T05:02:16.930Z,21.45
2022-08-07T05:07:30.488Z,21.44
2022-08-07T05:12:46.414Z,21.65
2022-08-07T05:18:06.153Z,22.04
2022-08-07T05:23:16.568Z,22.31
2022-08-07T05:28:26.763Z,22.46
2022-08-07T05:33:36.892Z,22.66
2022-08-07T05:39:00.644Z,22.83
2022-08-07T05:44:11.799Z,22.96
2022-08-07T05:49:20.688Z,23.02
2022-08-07T05:54:30.707Z,23.00
2022-08-07T05:59:55.767Z,23.02
2022-08-07T06:05:05.023Z,23.08
2022-08-07T06:10:11.192Z,23.12
2022-08-07T06:15:19.893Z,23.17
2022-08-07T06:20:49.723Z,23.20
2022-08-07T06:25:54.298Z,23.26
2022-08-07T06:31:00.472Z,23.31
2022-08-07T06:36:13.077Z,23.43
2022-08-07T06:42:02.509Z,23.48
2022-08-07T06:46:53.770Z,23.46
2022-08-07T06:52:17.032Z,23.58
2022-08-07T06:57:39.636Z,23.63
2022-08-07T07:02:57.485Z,23.61
2022-08-07T07:08:06.748Z,23.56
2022-08-07T07:13:14.065Z,23.61
2022-08-07T07:18:37.669Z,23.57
2022-08-07T07:24:06.428Z,23.61
2022-08-07T07:29:40.434Z,23.61
2022-08-07T07:34:37.793Z,23.59
2022-08-07T07:39:52.554Z,23.62
2022-08-07T07:45:00.318Z,23.63
2022-08-07T07:50:33.643Z,23.65
2022-08-07T07:55:37.482Z,23.64
2022-08-07T08:00:53.768Z,23.66
2022-08-07T08:05:57.086Z,23.69
2022-08-07T08:11:01.618Z,23.67
2022-08-07T08:16:07.378Z,23.64
2022-08-07T08:21:55.731Z,23.65
2022-08-07T08:27:09.748Z,23.71
2022-08-07T08:32:18.636Z,23.72
2022-08-07T08:38:00.379Z,23.74
2022-08-07T08:42:57.600Z,23.77
2022-08-07T08:48:08.148Z,23.72
2022-08-07T08:53:19.213Z,23.69
2022-08-07T08:58:33.263Z,23.68
2022-08-07T09:03:52.985Z,23.83
2022-08-07T09:09:36.447Z,23.83
2022-08-07T09:14:58.953Z,23.83
2022-08-07T09:20:34.787Z,23.93
2022-08-07T09:25:54.572Z,23.98
2022-08-07T09:31:03.049Z,23.89
2022-08-07T09:36:12.733Z,24.00
2022-08-07T09:41:24.978Z,24.03
2022-08-07T09:47:51.999Z,24.07
2022-08-07T09:52:33.531Z,24.03
2022-08-07T09:57:55.143Z,24.03
2022-08-07T10:04:05.215Z,24.00
2022-08-07T10:09:08.990Z,23.95
2022-08-07T10:14:31.216Z,23.92
2022-08-07T10:20:03.100Z,23.90
2022-08-07T10:25:42.286Z,23.88
2022-08-07T10:30:57.060Z,23.85
2022-08-07T10:36:30.237Z,23.85
2022-08-07T10:41:57.668Z,23.83
2022-08-07T10:47:31.381Z,23.83
2022-08-07T10:52:55.699Z,23.83
2022-08-07T10:58:06.859Z,23.82
2022-08-07T11:03:17.281Z,23.84
2022-08-07T11:08:30.437Z,23.84
2022-08-07T11:14:44.810Z,23.84
2022-08-07T11:19:11.388Z,23.84
2022-08-07T11:24:20.800Z,23.86
2022-08-07T11:29:47.272Z,23.88
2022-08-07T11:34:52.370Z,23.89
2022-08-07T11:40:10.078Z,23.91
2022-08-07T11:45:20.324Z,23.91
2022-08-07T11:50:33.508Z,23.96
2022-08-07T11:56:09.718Z,23.93
2022-08-07T12:01:59.795Z,23.98
2022-08-07T12:07:02.381Z,24.00
2022-08-07T12:12:14.712Z,24.01
2022-08-07T12:17:21.978Z,24.02
2022-08-07T12:22:38.940Z,24.03
2022-08-07T12:28:09.041Z,23.98
2022-08-07T12:33:23.517Z,24.06
2022-08-07T12:38:42.507Z,24.06
2022-08-07T12:44:02.829Z,24.10
2022-08-07T12:49:25.358Z,24.09
2022-08-07T12:54:54.658Z,24.11
2022-08-07T13:00:01.180Z,24.13
2022-08-07T13:06:03.676Z,24.13
2022-08-07T13:10:51.871Z,24.14
2022-08-07T13:16:01.838Z,24.16
2022-08-07T13:21:10.812Z,24.16
2022-08-07T13:26:18.598Z,24.19
2022-08-07T13:31:32.102Z,24.21
2022-08-07T13:36:54.307Z,24.21
2022-08-07T13:41:57.551Z,24.23
2022-08-07T13:47:02.557Z,24.27
2022-08-07T13:52:32.107Z,24.30
2022-08-07T13:57:38.128Z,24.27
2022-08-07T14:02:51.069Z,24.32
2022-08-07T14:08:01.203Z,24.35
2022-08-07T14:13:05.106Z,24.37
2022-08-07T14:18:29.669Z,24.38
2022-08-07T14:24:01.661Z,24.39
2022-08-07T14:29:08.497Z,24.40
2022-08-07T14:34:30.771Z,24.43
2022-08-07T14:40:15.518Z,24.44
2022-08-07T14:45:21.780Z,24.45
2022-08-07T14:50:42.759Z,24.46
2022-08-07T15:06:39.852Z,24.49
2022-08-07T15:12:01.276Z,24.50
2022-08-07T15:17:12.454Z,24.52
2022-08-07T15:22:29.519Z,24.53
2022-08-07T15:27:36.780Z,24.54
2022-08-07T15:33:01.453Z,24.57
2022-08-07T15:38:17.678Z,24.57
2022-08-07T15:43:53.851Z,24.59
2022-08-07T15:59:44.143Z,24.62
2022-08-07T16:04:47.186Z,24.63
2022-08-07T16:09:52.981Z,24.64
2022-08-07T16:15:55.030Z,24.66
2022-08-07T16:20:55.255Z,24.67
2022-08-07T16:26:14.407Z,24.68
2022-08-07T16:31:51.899Z,24.68
2022-08-07T16:38:03.512Z,24.67
2022-08-07T16:43:05.217Z,24.71
2022-08-07T16:49:04.262Z,24.71
2022-08-07T16:54:38.468Z,24.72
2022-08-07T17:00:05.408Z,24.72
2022-08-07T17:06:19.903Z,24.73
2022-08-07T17:10:54.546Z,24.73
2022-08-07T17:16:04.255Z,24.73
2022-08-07T17:21:19.174Z,24.73
2022-08-07T17:26:35.875Z,24.74
2022-08-07T17:32:02.651Z,24.74
2022-08-07T17:38:08.423Z,24.75
2022-08-07T17:42:59.194Z,24.74
2022-08-07T17:48:10.379Z,24.75
2022-08-07T17:54:00.039Z,24.75
2022-08-07T17:58:59.350Z,24.77
2022-08-07T18:04:16.157Z,24.77
2022-08-07T18:10:05.248Z,24.77
2022-08-07T18:14:50.869Z,24.77
2022-08-07T18:21:10.553Z,24.78
2022-08-07T18:25:40.879Z,24.78
2022-08-07T18:30:52.671Z,24.78
2022-08-07T18:36:06.037Z,24.82
2022-08-07T18:41:16.754Z,24.89
2022-08-07T18:46:27.013Z,24.95
2022-08-07T18:52:35.317Z,24.96
2022-08-07T18:57:39.983Z,24.98
2022-08-07T19:02:42.508Z,24.97
2022-08-07T19:07:58.866Z,24.96
2022-08-07T19:13:11.867Z,24.93
2022-08-07T19:18:34.992Z,24.88
2022-08-07T19:23:58.135Z,24.86
2022-08-07T19:30:57.161Z,24.82
2022-08-07T19:34:33.924Z,24.79
2022-08-07T19:39:40.802Z,24.79
2022-08-07T19:45:08.651Z,24.76
2022-08-07T19:50:40.985Z,24.77
2022-08-07T19:55:56.752Z,24.73
2022-08-07T20:00:59.849Z,24.72
2022-08-07T20:06:06.025Z,24.70
2022-08-07T20:11:11.998Z,24.68
2022-08-07T20:16:34.911Z,24.66
2022-08-07T20:21:42.274Z,24.63
2022-08-07T20:26:54.457Z,24.58
2022-08-07T20:32:00.616Z,24.58
2022-08-07T20:37:05.542Z,24.55
2022-08-07T20:42:12.300Z,24.53
2022-08-07T20:47:25.012Z,24.52
2022-08-07T20:52:50.794Z,24.50
2022-08-07T20:58:04.123Z,24.48
2022-08-07T21:03:19.299Z,24.43
2022-08-07T21:08:36.953Z,24.38
2022-08-07T21:14:16.710Z,24.39
2022-08-07T21:19:14.066Z,24.37
2022-08-07T21:24:23.673Z,24.33
2022-08-07T21:29:33.473Z,24.32
2022-08-07T21:34:46.282Z,24.31
2022-08-07T21:39:56.605Z,24.26
2022-08-07T21:46:05.423Z,24.16
2022-08-07T21:50:33.515Z,24.22
2022-08-07T21:55:43.583Z,24.17
2022-08-07T22:00:54.081Z,24.16
2022-08-07T22:06:01.778Z,24.15
2022-08-07T22:11:06.033Z,24.14
2022-08-07T22:16:39.780Z,24.13
2022-08-07T22:22:05.291Z,24.11
2022-08-07T22:27:07.036Z,24.09
2022-08-07T22:32:20.390Z,24.06
2022-08-07T22:38:03.749Z,24.01
2022-08-07T22:43:10.916Z,24.02
2022-08-07T22:48:55.093Z,24.01
2022-08-07T22:54:06.830Z,23.99
2022-08-07T22:59:32.675Z,23.96
2022-08-07T23:04:58.594Z,23.93
2022-08-07T23:10:38.374Z,23.91
2022-08-07T23:16:06.452Z,23.87
2022-08-07T23:21:29.810Z,23.87
2022-08-07T23:26:50.242Z,23.86
2022-08-07T23:34:20.774Z,23.84
2022-08-07T23:38:01.494Z,23.81
2022-08-07T23:43:38.014Z,23.79
2022-08-07T23:48:58.746Z,23.73
2022-08-07T23:54:08.378Z,23.71
